createdAt,value
2017-03-03T00:00:45.596Z,0
2017-03-03T00:01:55.487Z,0
2017-03-03T00:03:05.804Z,0
2017-03-03T00:04:15.731Z,0
2017-03-03T00:05:26.046Z,0
2017-03-03T00:06:35.772Z,0
2017-03-03T00:07:45.714Z,0
2017-03-03T00:08:55.193Z,0
2017-03-03T00:10:05.060Z,0
2017-03-03T00:11:15.325Z,0
2017-03-03T00:12:25.940Z,0
2017-03-03T00:13:35.471Z,0
2017-03-03T00:14:45.823Z,0
2017-03-03T00:15:55.807Z,0
2017-03-03T00:17:05.810Z,0
2017-03-03T00:18:15.948Z,0
2017-03-03T00:19:26.248Z,0
2017-03-03T00:20:36.174Z,0
2017-03-03T00:21:46.460Z,0
2017-03-03T00:22:56.393Z,0
2017-03-03T00:24:06.967Z,0
2017-03-03T00:25:16.866Z,0
2017-03-03T00:26:27.175Z,0
2017-03-03T00:27:36.696Z,0
2017-03-03T00:28:46.170Z,0
2017-03-03T00:29:56.693Z,0
2017-03-03T00:31:07.032Z,0
2017-03-03T00:32:16.985Z,0
2017-03-03T00:33:27.276Z,0
2017-03-03T00:34:37.564Z,0
2017-03-03T00:35:48.227Z,0
2017-03-03T00:36:58.487Z,0
2017-03-03T00:38:08.781Z,0
2017-03-03T00:39:18.284Z,0
2017-03-03T00:40:28.590Z,0
2017-03-03T00:41:39.142Z,0
2017-03-03T00:42:49.466Z,0
2017-03-03T00:43:59.771Z,0
2017-03-03T00:45:10.252Z,0
2017-03-03T00:46:20.190Z,0
2017-03-03T00:47:30.827Z,0
2017-03-03T00:48:40.731Z,0
2017-03-03T00:49:51.018Z,0
2017-03-03T00:51:01.340Z,0
2017-03-03T00:52:11.628Z,0
2017-03-03T00:53:22.214Z,0
2017-03-03T00:54:32.539Z,0
2017-03-03T00:55:42.405Z,0
2017-03-03T00:56:52.766Z,0
2017-03-03T00:58:02.254Z,0
2017-03-03T00:59:12.383Z,0
2017-03-03T01:00:22.693Z,0
2017-03-03T01:01:33.003Z,0
2017-03-03T01:02:43.432Z,0
2017-03-03T01:03:53.343Z,0
2017-03-03T01:05:03.912Z,0
2017-03-03T01:06:14.223Z,0
2017-03-03T01:07:24.117Z,0
2017-03-03T01:08:33.617Z,0
2017-03-03T01:09:43.920Z,0
2017-03-03T01:10:54.463Z,0
2017-03-03T01:12:04.802Z,0
2017-03-03T01:13:15.158Z,0
2017-03-03T01:14:25.444Z,0
2017-03-03T01:15:35.303Z,0
2017-03-03T01:16:45.153Z,0
2017-03-03T01:17:55.457Z,0
2017-03-03T01:19:05.786Z,0
2017-03-03T01:20:16.104Z,0
2017-03-03T01:21:26.376Z,0
2017-03-03T01:22:36.923Z,0
2017-03-03T01:23:47.243Z,0
2017-03-03T01:24:57.156Z,0
2017-03-03T01:26:07.066Z,0
2017-03-03T01:27:17.365Z,0
2017-03-03T01:28:27.618Z,0
2017-03-03T01:29:37.504Z,0
2017-03-03T01:30:47.820Z,0
2017-03-03T01:31:58.143Z,0
2017-03-03T01:33:08.095Z,0
2017-03-03T01:34:18.343Z,0
2017-03-03T01:35:28.686Z,0
2017-03-03T01:36:39.004Z,0
2017-03-03T01:37:49.337Z,0
2017-03-03T01:38:59.248Z,0
2017-03-03T01:40:09.813Z,0
2017-03-03T01:41:20.212Z,0
2017-03-03T01:42:30.491Z,0
2017-03-03T01:43:41.266Z,0
2017-03-03T01:44:51.140Z,0
2017-03-03T01:46:01.814Z,0
2017-03-03T01:47:11.705Z,0
2017-03-03T01:48:22.038Z,0
2017-03-03T01:49:31.963Z,0
2017-03-03T01:50:42.225Z,0
2017-03-03T01:51:52.005Z,0
2017-03-03T01:53:01.879Z,0
2017-03-03T01:54:11.799Z,0
2017-03-03T01:55:21.712Z,0
2017-03-03T01:56:32.006Z,0
2017-03-03T01:57:42.566Z,0
2017-03-03T01:58:52.873Z,0
2017-03-03T02:00:03.149Z,0
2017-03-03T02:01:13.012Z,0
2017-03-03T02:02:23.317Z,0
2017-03-03T02:03:33.952Z,0
2017-03-03T02:04:43.406Z,0
2017-03-03T02:05:53.281Z,0
2017-03-03T02:07:03.670Z,0
2017-03-03T02:08:13.951Z,0
2017-03-03T02:09:24.492Z,0
2017-03-03T02:10:34.737Z,0
2017-03-03T02:11:44.608Z,0
2017-03-03T02:12:54.892Z,0
2017-03-03T02:14:05.196Z,0
2017-03-03T02:15:15.403Z,0
2017-03-03T02:16:25.780Z,0
2017-03-03T02:17:35.678Z,0
2017-03-03T02:18:45.991Z,0
2017-03-03T02:19:56.383Z,0
2017-03-03T02:21:06.159Z,0
2017-03-03T02:22:16.052Z,0
2017-03-03T02:23:25.990Z,0
2017-03-03T02:24:35.966Z,0
2017-03-03T02:25:46.458Z,0
2017-03-03T02:26:57.058Z,0
2017-03-03T02:28:06.945Z,0
2017-03-03T02:29:16.904Z,0
2017-03-03T02:30:26.876Z,0
2017-03-03T02:31:37.184Z,0
2017-03-03T02:32:47.302Z,0
2017-03-03T02:33:57.216Z,0
2017-03-03T02:35:07.571Z,0
2017-03-03T02:36:17.539Z,0
2017-03-03T02:37:27.478Z,0
2017-03-03T02:38:37.997Z,0
2017-03-03T02:39:48.357Z,0
2017-03-03T02:40:58.635Z,0
2017-03-03T02:42:08.908Z,0
2017-03-03T02:43:19.233Z,0
2017-03-03T02:44:29.746Z,0
2017-03-03T02:45:40.028Z,0
2017-03-03T02:46:49.951Z,0
2017-03-03T02:47:59.841Z,0
2017-03-03T02:49:09.805Z,0
2017-03-03T02:50:19.916Z,0
2017-03-03T02:51:30.222Z,0
2017-03-03T02:52:40.629Z,0
2017-03-03T02:53:50.927Z,0
2017-03-03T02:55:00.857Z,0
2017-03-03T02:56:11.059Z,0
2017-03-03T02:57:21.358Z,0
2017-03-03T02:58:31.635Z,0
2017-03-03T02:59:41.935Z,0
2017-03-03T03:00:52.223Z,0
2017-03-03T03:02:02.850Z,0
2017-03-03T03:03:13.160Z,0
2017-03-03T03:04:23.446Z,0
2017-03-03T03:05:33.735Z,0
2017-03-03T03:06:44.099Z,0
2017-03-03T03:07:54.641Z,0
2017-03-03T03:09:04.996Z,0
2017-03-03T03:10:14.883Z,0
2017-03-03T03:11:25.242Z,0
2017-03-03T03:12:35.564Z,0
2017-03-03T03:13:46.125Z,0
2017-03-03T03:14:56.437Z,0
2017-03-03T03:16:06.463Z,0
2017-03-03T03:17:16.751Z,0
2017-03-03T03:18:27.042Z,0
2017-03-03T03:19:36.408Z,0
2017-03-03T03:20:46.302Z,0
2017-03-03T03:21:56.184Z,0
2017-03-03T03:23:06.596Z,0
2017-03-03T03:24:16.473Z,0
2017-03-03T03:25:27.089Z,0
2017-03-03T03:26:37.449Z,0
2017-03-03T03:27:47.749Z,0
2017-03-03T03:28:58.119Z,0
2017-03-03T03:30:07.619Z,0
2017-03-03T03:31:18.208Z,0
2017-03-03T03:32:28.481Z,0
2017-03-03T03:33:38.809Z,0
2017-03-03T03:34:49.187Z,0
2017-03-03T03:35:59.060Z,0
2017-03-03T03:37:08.913Z,0
2017-03-03T03:38:19.180Z,0
2017-03-03T03:39:29.638Z,0
2017-03-03T03:40:39.988Z,0
2017-03-03T03:41:49.884Z,0
2017-03-03T03:43:00.449Z,0
2017-03-03T03:44:10.351Z,0
2017-03-03T03:45:20.608Z,0
2017-03-03T03:46:30.906Z,0
2017-03-03T03:47:40.773Z,0
2017-03-03T03:48:50.483Z,0
2017-03-03T03:50:00.353Z,0
2017-03-03T03:51:10.636Z,0
2017-03-03T03:52:20.978Z,0
2017-03-03T03:53:31.256Z,0
2017-03-03T03:54:41.433Z,0
2017-03-03T03:55:51.372Z,0
2017-03-03T03:57:01.757Z,0
2017-03-03T03:58:12.082Z,0
2017-03-03T03:59:22.361Z,0
2017-03-03T04:00:32.936Z,0
2017-03-03T04:01:43.332Z,0
2017-03-03T04:02:53.627Z,0
2017-03-03T04:04:03.507Z,0
2017-03-03T04:05:13.426Z,0
2017-03-03T04:06:23.954Z,0
2017-03-03T04:07:34.225Z,0
2017-03-03T04:08:44.214Z,0
2017-03-03T04:09:54.533Z,0
2017-03-03T04:11:04.812Z,0
2017-03-03T04:12:14.937Z,0
2017-03-03T04:13:25.299Z,0
2017-03-03T04:14:35.567Z,0
2017-03-03T04:15:45.894Z,0
2017-03-03T04:16:56.185Z,0
2017-03-03T04:18:06.732Z,0
2017-03-03T04:19:17.013Z,0
2017-03-03T04:20:26.908Z,0
2017-03-03T04:21:36.799Z,0
2017-03-03T04:22:47.131Z,0
2017-03-03T04:23:57.883Z,0
2017-03-03T04:25:08.374Z,0
2017-03-03T04:26:18.693Z,0
2017-03-03T04:27:28.949Z,0
2017-03-03T04:28:38.944Z,0
2017-03-03T04:29:49.744Z,0
2017-03-03T04:30:59.995Z,0
2017-03-03T04:32:10.251Z,0
2017-03-03T04:33:19.733Z,0
2017-03-03T04:34:29.843Z,0
2017-03-03T04:35:39.999Z,0
2017-03-03T04:36:49.068Z,0
2017-03-03T04:37:59.397Z,0
2017-03-03T04:39:09.340Z,0
2017-03-03T04:40:19.220Z,0
2017-03-03T04:41:29.788Z,0
2017-03-03T04:42:40.110Z,0
2017-03-03T04:43:50.390Z,0
2017-03-03T04:45:00.709Z,0
2017-03-03T04:46:10.977Z,0
2017-03-03T04:47:21.523Z,0
2017-03-03T04:48:31.085Z,0
2017-03-03T04:49:41.374Z,0
2017-03-03T04:50:51.339Z,0
2017-03-03T04:52:01.647Z,0
2017-03-03T04:53:11.813Z,0
2017-03-03T04:54:22.132Z,0
2017-03-03T04:55:32.406Z,0
2017-03-03T04:56:42.697Z,0
2017-03-03T04:57:52.194Z,0
2017-03-03T04:59:02.345Z,0
2017-03-03T05:00:12.629Z,0
2017-03-03T05:01:23.096Z,0
2017-03-03T05:02:33.427Z,0
2017-03-03T05:03:43.762Z,0
2017-03-03T05:04:53.984Z,0
2017-03-03T05:06:04.419Z,0
2017-03-03T05:07:14.297Z,0
2017-03-03T05:08:24.175Z,0
2017-03-03T05:09:34.511Z,0
2017-03-03T05:10:44.623Z,0
2017-03-03T05:11:54.950Z,0
2017-03-03T05:13:04.808Z,0
2017-03-03T05:14:15.248Z,0
2017-03-03T05:15:24.309Z,0
2017-03-03T05:16:34.881Z,0
2017-03-03T05:17:44.811Z,0
2017-03-03T05:18:54.687Z,0
2017-03-03T05:20:04.288Z,0
2017-03-03T05:21:14.568Z,0
2017-03-03T05:22:25.135Z,0
2017-03-03T05:23:35.560Z,0
2017-03-03T05:24:45.024Z,0
2017-03-03T05:25:55.298Z,0
2017-03-03T05:27:05.195Z,0
2017-03-03T05:28:15.770Z,0
2017-03-03T05:29:25.654Z,0
2017-03-03T05:30:35.535Z,0
2017-03-03T05:31:45.920Z,0
2017-03-03T05:32:56.228Z,0
2017-03-03T05:34:06.742Z,0
2017-03-03T05:35:17.027Z,0
2017-03-03T05:36:27.335Z,0
2017-03-03T05:37:37.817Z,0
2017-03-03T05:38:48.152Z,0
2017-03-03T05:39:58.739Z,0
2017-03-03T05:41:09.054Z,0
2017-03-03T05:42:19.018Z,0
2017-03-03T05:43:29.345Z,5
2017-03-03T05:44:39.655Z,5
2017-03-03T05:45:50.226Z,5
2017-03-03T05:47:00.110Z,5
2017-03-03T05:48:09.977Z,10
2017-03-03T05:49:20.311Z,10
2017-03-03T05:50:30.748Z,10
2017-03-03T05:51:41.291Z,15
2017-03-03T05:52:51.348Z,15
2017-03-03T05:54:01.617Z,15
2017-03-03T05:55:11.918Z,20
2017-03-03T05:56:22.201Z,20
2017-03-03T05:57:31.980Z,20
2017-03-03T05:58:42.240Z,25
2017-03-03T05:59:52.573Z,30
2017-03-03T06:01:03.057Z,30
2017-03-03T06:02:13.387Z,35
2017-03-03T06:03:23.642Z,40
2017-03-03T06:04:34.000Z,40
2017-03-03T06:05:44.336Z,45
2017-03-03T06:06:54.779Z,50
2017-03-03T06:08:05.114Z,50
2017-03-03T06:09:15.770Z,50
2017-03-03T06:10:25.719Z,55
2017-03-03T06:11:36.075Z,55
2017-03-03T06:12:46.345Z,60
2017-03-03T06:13:56.647Z,60
2017-03-03T06:15:07.221Z,65
2017-03-03T06:16:16.705Z,70
2017-03-03T06:17:26.897Z,75
2017-03-03T06:18:37.181Z,75
2017-03-03T06:19:47.623Z,80
2017-03-03T06:20:58.189Z,80
2017-03-03T06:22:08.477Z,85
2017-03-03T06:23:18.749Z,90
2017-03-03T06:24:29.045Z,95
2017-03-03T06:25:39.412Z,100
2017-03-03T06:26:49.969Z,105
2017-03-03T06:28:00.333Z,110
2017-03-03T06:29:10.192Z,115
2017-03-03T06:30:20.528Z,120
2017-03-03T06:31:30.822Z,120
2017-03-03T06:32:41.431Z,125
2017-03-03T06:33:51.723Z,125
2017-03-03T06:35:02.008Z,130
2017-03-03T06:36:12.301Z,130
2017-03-03T06:37:22.704Z,135
2017-03-03T06:38:33.250Z,135
2017-03-03T06:39:43.530Z,140
2017-03-03T06:40:53.841Z,145
2017-03-03T06:42:03.751Z,145
2017-03-03T06:43:14.144Z,150
2017-03-03T06:44:23.985Z,160
2017-03-03T06:45:34.275Z,155
2017-03-03T06:46:44.173Z,155
2017-03-03T06:47:54.515Z,155
2017-03-03T06:49:04.814Z,155
2017-03-03T06:50:15.364Z,160
2017-03-03T06:51:25.290Z,160
2017-03-03T06:52:35.565Z,160
2017-03-03T06:53:45.853Z,170
2017-03-03T06:54:56.138Z,170
2017-03-03T06:56:06.692Z,175
2017-03-03T06:57:16.979Z,180
2017-03-03T06:58:26.957Z,185
2017-03-03T06:59:36.879Z,195
2017-03-03T07:00:46.755Z,205
2017-03-03T07:01:57.312Z,210
2017-03-03T07:03:07.622Z,220
2017-03-03T07:04:17.881Z,225
2017-03-03T07:05:28.210Z,225
2017-03-03T07:06:38.470Z,230
2017-03-03T07:07:49.083Z,240
2017-03-03T07:08:59.034Z,240
2017-03-03T07:10:09.421Z,245
2017-03-03T07:11:19.870Z,260
2017-03-03T07:12:30.366Z,270
2017-03-03T07:13:40.940Z,275
2017-03-03T07:14:51.242Z,290
2017-03-03T07:16:01.526Z,295
2017-03-03T07:17:11.849Z,300
2017-03-03T07:18:22.192Z,305
2017-03-03T07:19:32.754Z,320
2017-03-03T07:20:43.230Z,325
2017-03-03T07:21:53.514Z,335
2017-03-03T07:23:03.791Z,345
2017-03-03T07:24:14.088Z,345
2017-03-03T07:25:24.341Z,350
2017-03-03T07:26:34.651Z,360
2017-03-03T07:27:44.953Z,360
2017-03-03T07:28:55.023Z,365
2017-03-03T07:30:05.604Z,370
2017-03-03T07:31:15.776Z,375
2017-03-03T07:32:25.655Z,375
2017-03-03T07:33:36.058Z,380
2017-03-03T07:34:46.085Z,385
2017-03-03T07:35:56.407Z,410
2017-03-03T07:37:06.963Z,420
2017-03-03T07:38:17.282Z,445
2017-03-03T07:39:27.621Z,490
2017-03-03T07:40:38.071Z,510
2017-03-03T07:41:48.360Z,620
2017-03-03T07:42:58.961Z,730
2017-03-03T07:44:10.007Z,715
2017-03-03T07:45:20.630Z,670
2017-03-03T07:46:31.618Z,540
2017-03-03T07:47:42.652Z,650
2017-03-03T07:48:53.909Z,720
2017-03-03T07:50:04.933Z,660
2017-03-03T07:51:15.943Z,555
2017-03-03T07:52:27.043Z,725
2017-03-03T07:53:38.089Z,800
2017-03-03T07:54:49.429Z,905
2017-03-03T07:56:00.436Z,880
2017-03-03T07:57:11.114Z,900
2017-03-03T07:58:21.737Z,930
2017-03-03T07:59:32.364Z,955
2017-03-03T08:00:43.222Z,775
2017-03-03T08:01:53.834Z,895
2017-03-03T08:03:04.576Z,980
2017-03-03T08:04:15.225Z,1005
2017-03-03T08:05:25.836Z,1055
2017-03-03T08:06:36.676Z,1090
2017-03-03T08:07:46.861Z,855
2017-03-03T08:08:57.482Z,1125
2017-03-03T08:10:08.229Z,1160
2017-03-03T08:11:19.356Z,1080
2017-03-03T08:12:30.602Z,1005
2017-03-03T08:13:41.663Z,825
2017-03-03T08:14:52.701Z,865
2017-03-03T08:16:03.258Z,795
2017-03-03T08:17:14.378Z,740
2017-03-03T08:18:24.871Z,690
2017-03-03T08:19:35.213Z,615
2017-03-03T08:20:45.589Z,595
2017-03-03T08:21:55.888Z,560
2017-03-03T08:23:06.231Z,600
2017-03-03T08:24:16.023Z,730
2017-03-03T08:25:26.350Z,840
2017-03-03T08:26:36.725Z,875
2017-03-03T08:27:46.710Z,930
2017-03-03T08:28:56.608Z,850
2017-03-03T08:30:07.337Z,930
2017-03-03T08:31:17.645Z,920
2017-03-03T08:32:28.102Z,850
2017-03-03T08:33:38.462Z,670
2017-03-03T08:34:48.349Z,750
2017-03-03T08:35:58.884Z,610
2017-03-03T08:37:09.174Z,620
2017-03-03T08:38:19.479Z,755
2017-03-03T08:39:29.843Z,1015
2017-03-03T08:40:40.857Z,1790
2017-03-03T08:41:51.319Z,1790
2017-03-03T08:43:01.991Z,1970
2017-03-03T08:44:13.007Z,1795
2017-03-03T08:45:23.683Z,2290
2017-03-03T08:46:34.787Z,2125
2017-03-03T08:47:45.798Z,2220
2017-03-03T08:48:56.898Z,1845
2017-03-03T08:50:07.965Z,2135
2017-03-03T08:51:19.067Z,2255
2017-03-03T08:52:29.803Z,2215
2017-03-03T08:53:41.149Z,2255
2017-03-03T08:54:52.224Z,2255
2017-03-03T08:56:03.318Z,2355
2017-03-03T08:57:14.511Z,2355
2017-03-03T08:58:25.213Z,2360
2017-03-03T08:59:36.794Z,2305
2017-03-03T09:00:47.816Z,2430
2017-03-03T09:01:58.906Z,2415
2017-03-03T09:03:09.559Z,2360
2017-03-03T09:04:19.777Z,2165
2017-03-03T09:05:31.253Z,2330
2017-03-03T09:06:42.274Z,2290
2017-03-03T09:07:52.572Z,2360
2017-03-03T09:09:03.686Z,2270
2017-03-03T09:10:14.281Z,2350
2017-03-03T09:11:25.775Z,2505
2017-03-03T09:12:36.765Z,2785
2017-03-03T09:13:47.961Z,2905
2017-03-03T09:14:59.023Z,2905
2017-03-03T09:16:09.625Z,2760
2017-03-03T09:17:20.973Z,2635
2017-03-03T09:18:31.597Z,2505
2017-03-03T09:19:42.645Z,2575
2017-03-03T09:20:53.708Z,2195
2017-03-03T09:22:04.803Z,2025
2017-03-03T09:23:16.063Z,1905
2017-03-03T09:24:26.279Z,2610
2017-03-03T09:25:36.928Z,2730
2017-03-03T09:26:47.562Z,2905
2017-03-03T09:27:58.679Z,2900
2017-03-03T09:29:09.238Z,2840
2017-03-03T09:30:19.742Z,2545
2017-03-03T09:31:30.482Z,2445
2017-03-03T09:32:41.141Z,2585
2017-03-03T09:33:52.304Z,2665
2017-03-03T09:35:03.598Z,2630
2017-03-03T09:36:14.620Z,2630
2017-03-03T09:37:25.248Z,3055
2017-03-03T09:38:36.001Z,2880
2017-03-03T09:39:46.624Z,2545
2017-03-03T09:40:57.492Z,2505
2017-03-03T09:42:08.147Z,2690
2017-03-03T09:43:19.190Z,3015
2017-03-03T09:44:29.919Z,3125
2017-03-03T09:45:40.556Z,2970
2017-03-03T09:46:51.995Z,2635
2017-03-03T09:48:03.065Z,2095
2017-03-03T09:49:14.116Z,2210
2017-03-03T09:50:24.209Z,2195
2017-03-03T09:51:34.841Z,1985
2017-03-03T09:52:45.404Z,2065
2017-03-03T09:53:56.474Z,2345
2017-03-03T09:55:07.545Z,2460
2017-03-03T09:56:18.564Z,2745
2017-03-03T09:57:29.654Z,3275
2017-03-03T09:58:40.546Z,3085
2017-03-03T09:59:51.610Z,2960
2017-03-03T10:01:01.721Z,3020
2017-03-03T10:02:12.778Z,2555
2017-03-03T10:03:23.816Z,2300
2017-03-03T10:04:35.100Z,2225
2017-03-03T10:05:46.156Z,1700
2017-03-03T10:06:57.201Z,1735
2017-03-03T10:08:08.237Z,1945
2017-03-03T10:09:19.283Z,2055
2017-03-03T10:10:30.729Z,2270
2017-03-03T10:11:41.801Z,2790
2017-03-03T10:12:52.470Z,2930
2017-03-03T10:14:03.535Z,2790
2017-03-03T10:15:14.106Z,2445
2017-03-03T10:16:25.396Z,2955
2017-03-03T10:17:36.095Z,2950
2017-03-03T10:18:46.802Z,3130
2017-03-03T10:19:57.852Z,3075
2017-03-03T10:21:08.899Z,2950
2017-03-03T10:22:20.154Z,2995
2017-03-03T10:23:31.207Z,3020
2017-03-03T10:24:42.285Z,3345
2017-03-03T10:25:53.350Z,3320
2017-03-03T10:27:04.371Z,3215
2017-03-03T10:28:15.708Z,3280
2017-03-03T10:29:26.720Z,3435
2017-03-03T10:30:37.791Z,3155
2017-03-03T10:31:48.318Z,2700
2017-03-03T10:32:59.049Z,2655
2017-03-03T10:34:10.384Z,2975
2017-03-03T10:35:21.424Z,3425
2017-03-03T10:36:32.455Z,3560
2017-03-03T10:37:43.530Z,3430
2017-03-03T10:38:54.266Z,3490
2017-03-03T10:40:05.517Z,3495
2017-03-03T10:41:16.121Z,3410
2017-03-03T10:42:27.149Z,3235
2017-03-03T10:43:38.212Z,3015
2017-03-03T10:44:48.721Z,3220
2017-03-03T10:46:00.014Z,3000
2017-03-03T10:47:11.066Z,2860
2017-03-03T10:48:22.137Z,2860
2017-03-03T10:49:32.787Z,3040
2017-03-03T10:50:43.811Z,2925
2017-03-03T10:51:54.282Z,3095
2017-03-03T10:53:05.287Z,3375
2017-03-03T10:54:16.309Z,3250
2017-03-03T10:55:26.951Z,3080
2017-03-03T10:56:37.198Z,2920
2017-03-03T10:57:48.495Z,2890
2017-03-03T10:58:59.516Z,3320
2017-03-03T11:00:10.157Z,3535
2017-03-03T11:01:21.219Z,3320
2017-03-03T11:02:32.282Z,3215
2017-03-03T11:03:43.591Z,2570
2017-03-03T11:04:54.234Z,2525
2017-03-03T11:06:05.371Z,2590
2017-03-03T11:07:16.427Z,2265
2017-03-03T11:08:27.684Z,2245
2017-03-03T11:09:38.704Z,1970
2017-03-03T11:10:49.086Z,1870
2017-03-03T11:11:59.531Z,1825
2017-03-03T11:13:09.456Z,1915
2017-03-03T11:14:19.379Z,2070
2017-03-03T11:15:30.015Z,2220
2017-03-03T11:16:40.374Z,2075
2017-03-03T11:17:50.282Z,2220
2017-03-03T11:19:00.403Z,2450
2017-03-03T11:20:11.057Z,2685
2017-03-03T11:21:21.225Z,3305
2017-03-03T11:22:31.516Z,2840
2017-03-03T11:23:41.843Z,2740
2017-03-03T11:24:52.234Z,2485
2017-03-03T11:26:02.559Z,2395
2017-03-03T11:27:13.130Z,2435
2017-03-03T11:28:23.475Z,2475
2017-03-03T11:29:33.424Z,2600
2017-03-03T11:30:43.349Z,2745
2017-03-03T11:31:53.646Z,2825
2017-03-03T11:33:03.817Z,2920
2017-03-03T11:34:13.756Z,3295
2017-03-03T11:35:23.686Z,3390
2017-03-03T11:36:34.114Z,3310
2017-03-03T11:37:44.635Z,3265
2017-03-03T11:38:55.174Z,2775
2017-03-03T11:40:05.083Z,2760
2017-03-03T11:41:14.992Z,2895
2017-03-03T11:42:24.898Z,3045
2017-03-03T11:43:35.342Z,2875
2017-03-03T11:44:45.508Z,2705
2017-03-03T11:45:55.017Z,2520
2017-03-03T11:47:04.929Z,2565
2017-03-03T11:48:14.909Z,2625
2017-03-03T11:49:23.994Z,2590
2017-03-03T11:50:34.192Z,2150
2017-03-03T11:51:44.489Z,2210
2017-03-03T11:52:54.808Z,2115
2017-03-03T11:54:05.143Z,2365
2017-03-03T11:55:15.544Z,2315
2017-03-03T11:56:26.122Z,2360
2017-03-03T11:57:36.491Z,2420
2017-03-03T11:58:46.809Z,2570
2017-03-03T11:59:57.248Z,2570
2017-03-03T12:01:07.201Z,2455
2017-03-03T12:02:17.944Z,2445
2017-03-03T12:03:27.847Z,2290
2017-03-03T12:04:38.231Z,2235
2017-03-03T12:05:48.540Z,2105
2017-03-03T12:06:58.872Z,2075
2017-03-03T12:08:09.418Z,1880
2017-03-03T12:09:19.718Z,2055
2017-03-03T12:10:29.667Z,2000
2017-03-03T12:11:40.036Z,2150
2017-03-03T12:12:50.385Z,2290
2017-03-03T12:14:00.942Z,2440
2017-03-03T12:15:11.242Z,2390
2017-03-03T12:16:21.556Z,2370
2017-03-03T12:17:31.896Z,2380
2017-03-03T12:18:42.521Z,2115
2017-03-03T12:19:53.176Z,2050
2017-03-03T12:21:03.524Z,1915
2017-03-03T12:22:13.885Z,2095
2017-03-03T12:23:24.211Z,1945
2017-03-03T12:24:33.321Z,1495
2017-03-03T12:25:43.540Z,1660
2017-03-03T12:26:52.652Z,2010
2017-03-03T12:28:02.961Z,1980
2017-03-03T12:29:12.938Z,2200
2017-03-03T12:30:23.289Z,1885
2017-03-03T12:31:33.457Z,1785
2017-03-03T12:32:42.993Z,1905
2017-03-03T12:33:53.417Z,1975
2017-03-03T12:35:03.713Z,2025
2017-03-03T12:36:14.019Z,2115
2017-03-03T12:37:23.835Z,2305
2017-03-03T12:38:34.133Z,2180
2017-03-03T12:39:44.073Z,2230
2017-03-03T12:40:53.647Z,2270
2017-03-03T12:42:03.974Z,2135
2017-03-03T12:43:14.122Z,2005
2017-03-03T12:44:24.683Z,1845
2017-03-03T12:45:34.978Z,1925
2017-03-03T12:46:44.496Z,1965
2017-03-03T12:47:54.805Z,2035
2017-03-03T12:49:05.436Z,1860
2017-03-03T12:50:15.783Z,1990
2017-03-03T12:51:26.101Z,1905
2017-03-03T12:52:36.412Z,1820
2017-03-03T12:53:46.350Z,1905
2017-03-03T12:54:56.972Z,1605
2017-03-03T12:56:07.334Z,1585
2017-03-03T12:57:17.685Z,1640
2017-03-03T12:58:27.682Z,1605
2017-03-03T12:59:38.022Z,1615
2017-03-03T13:00:48.599Z,1650
2017-03-03T13:01:58.553Z,1775
2017-03-03T13:03:08.688Z,1790
2017-03-03T13:04:18.997Z,1975
2017-03-03T13:05:29.431Z,2075
2017-03-03T13:06:39.190Z,1995
2017-03-03T13:07:49.612Z,1845
2017-03-03T13:08:59.558Z,1990
2017-03-03T13:10:09.904Z,2150
2017-03-03T13:11:20.240Z,1945
2017-03-03T13:12:30.477Z,1905
2017-03-03T13:13:40.442Z,2030
2017-03-03T13:14:49.969Z,1995
2017-03-03T13:15:59.882Z,1955
2017-03-03T13:17:10.269Z,1855
2017-03-03T13:18:21.043Z,1730
2017-03-03T13:19:31.018Z,1590
2017-03-03T13:20:41.407Z,1470
2017-03-03T13:21:51.727Z,1500
2017-03-03T13:23:00.849Z,1425
2017-03-03T13:24:11.510Z,1275
2017-03-03T13:25:21.852Z,1145
2017-03-03T13:26:32.194Z,1100
2017-03-03T13:27:42.135Z,1100
2017-03-03T13:28:52.135Z,1090
2017-03-03T13:30:02.365Z,1060
2017-03-03T13:31:12.294Z,1025
2017-03-03T13:32:22.643Z,1010
2017-03-03T13:33:32.983Z,980
2017-03-03T13:34:42.964Z,955
2017-03-03T13:35:52.729Z,900
2017-03-03T13:37:03.115Z,895
2017-03-03T13:38:13.593Z,855
2017-03-03T13:39:24.036Z,830
2017-03-03T13:40:34.362Z,795
2017-03-03T13:41:44.513Z,785
2017-03-03T13:42:54.976Z,760
2017-03-03T13:44:05.338Z,730
2017-03-03T13:45:15.695Z,705
2017-03-03T13:46:26.001Z,710
2017-03-03T13:47:36.813Z,720
2017-03-03T13:48:46.741Z,725
2017-03-03T13:49:56.698Z,735
2017-03-03T13:51:07.012Z,765
2017-03-03T13:52:16.930Z,795
2017-03-03T13:53:27.127Z,805
2017-03-03T13:54:37.504Z,820
2017-03-03T13:55:47.885Z,835
2017-03-03T13:56:57.814Z,850
2017-03-03T13:58:08.186Z,860
2017-03-03T13:59:18.776Z,860
2017-03-03T14:00:28.714Z,855
2017-03-03T14:01:39.131Z,830
2017-03-03T14:02:49.584Z,840
2017-03-03T14:03:59.915Z,845
2017-03-03T14:05:10.514Z,780
2017-03-03T14:06:20.818Z,760
2017-03-03T14:07:31.125Z,710
2017-03-03T14:08:40.613Z,680
2017-03-03T14:09:50.953Z,655
2017-03-03T14:11:01.506Z,630
2017-03-03T14:12:11.843Z,610
2017-03-03T14:13:21.757Z,600
2017-03-03T14:14:31.245Z,590
2017-03-03T14:15:41.528Z,580
2017-03-03T14:16:51.704Z,585
2017-03-03T14:18:01.745Z,585
2017-03-03T14:19:11.253Z,580
2017-03-03T14:20:21.129Z,590
2017-03-03T14:21:31.441Z,605
2017-03-03T14:22:41.569Z,630
2017-03-03T14:23:52.001Z,650
2017-03-03T14:25:01.935Z,625
2017-03-03T14:26:12.289Z,635
2017-03-03T14:27:22.629Z,645
2017-03-03T14:28:33.223Z,635
2017-03-03T14:29:43.513Z,625
2017-03-03T14:30:52.619Z,595
2017-03-03T14:32:02.495Z,570
2017-03-03T14:33:12.012Z,545
2017-03-03T14:34:22.663Z,525
2017-03-03T14:35:32.550Z,510
2017-03-03T14:36:42.464Z,505
2017-03-03T14:37:52.444Z,490
2017-03-03T14:39:02.362Z,475
2017-03-03T14:40:12.906Z,465
2017-03-03T14:41:23.234Z,450
2017-03-03T14:42:33.143Z,435
2017-03-03T14:43:43.437Z,430
2017-03-03T14:44:53.750Z,420
2017-03-03T14:46:03.943Z,405
2017-03-03T14:47:14.261Z,400
2017-03-03T14:48:24.580Z,385
2017-03-03T14:49:35.119Z,375
2017-03-03T14:50:45.673Z,370
2017-03-03T14:51:55.535Z,370
2017-03-03T14:53:05.014Z,365
2017-03-03T14:54:15.312Z,365
2017-03-03T14:55:24.851Z,365
2017-03-03T14:56:33.918Z,360
2017-03-03T14:57:44.053Z,350
2017-03-03T14:58:54.084Z,350
2017-03-03T15:00:03.996Z,335
2017-03-03T15:01:14.307Z,325
2017-03-03T15:02:24.267Z,310
2017-03-03T15:03:34.980Z,305
2017-03-03T15:04:45.332Z,295
2017-03-03T15:05:55.621Z,280
2017-03-03T15:07:06.069Z,270
2017-03-03T15:08:15.948Z,260
2017-03-03T15:09:26.574Z,250
2017-03-03T15:10:36.469Z,245
2017-03-03T15:11:46.832Z,245
2017-03-03T15:12:57.120Z,245
2017-03-03T15:14:06.651Z,245
2017-03-03T15:15:16.083Z,245
2017-03-03T15:16:26.004Z,235
2017-03-03T15:17:35.945Z,235
2017-03-03T15:18:45.827Z,230
2017-03-03T15:19:56.213Z,225
2017-03-03T15:21:06.425Z,220
2017-03-03T15:22:16.710Z,215
2017-03-03T15:23:26.717Z,210
2017-03-03T15:24:37.002Z,205
2017-03-03T15:25:47.636Z,200
2017-03-03T15:26:57.930Z,195
2017-03-03T15:28:08.191Z,190
2017-03-03T15:29:18.112Z,185
2017-03-03T15:30:28.421Z,180
2017-03-03T15:31:38.541Z,180
2017-03-03T15:33:20.642Z,170
2017-03-03T15:34:30.918Z,165
2017-03-03T15:35:41.212Z,165
2017-03-03T15:36:53.450Z,160
2017-03-03T15:38:03.770Z,150
2017-03-03T15:39:14.288Z,140
2017-03-03T15:40:24.607Z,135
2017-03-03T15:41:34.945Z,125
2017-03-03T15:42:45.527Z,120
2017-03-03T15:43:55.403Z,115
2017-03-03T15:45:05.315Z,110
2017-03-03T15:46:15.600Z,105
2017-03-03T15:47:25.881Z,105
2017-03-03T15:48:35.656Z,100
2017-03-03T15:49:45.987Z,95
2017-03-03T15:50:56.365Z,90
2017-03-03T15:52:05.836Z,85
2017-03-03T15:53:15.828Z,85
2017-03-03T15:54:26.399Z,85
2017-03-03T15:55:36.295Z,80
2017-03-03T15:56:46.587Z,80
2017-03-03T15:57:56.478Z,75
2017-03-03T15:59:06.763Z,75
2017-03-03T16:00:16.543Z,75
2017-03-03T16:01:26.009Z,75
2017-03-03T16:02:36.361Z,70
2017-03-03T16:03:46.260Z,70
2017-03-03T16:04:56.180Z,70
2017-03-03T16:06:05.899Z,65
2017-03-03T16:07:16.185Z,60
2017-03-03T16:08:26.536Z,60
2017-03-03T16:09:36.054Z,60
2017-03-03T16:10:46.368Z,55
2017-03-03T16:11:56.935Z,55
2017-03-03T16:13:06.980Z,55
2017-03-03T16:14:17.021Z,55
2017-03-03T16:15:27.013Z,55
2017-03-03T16:16:36.983Z,50
2017-03-03T16:17:47.524Z,50
2017-03-03T16:18:57.816Z,45
2017-03-03T16:20:08.150Z,45
2017-03-03T16:21:18.491Z,45
2017-03-03T16:22:28.395Z,40
2017-03-03T16:23:39.011Z,40
2017-03-03T16:24:49.348Z,40